createdAt,value
2023-01-17T00:02:11.994Z,99.90
2023-01-17T00:04:57.673Z,99.90
2023-01-17T00:07:43.401Z,99.90
2023-01-17T00:10:15.969Z,99.90
2023-01-17T00:12:49.681Z,99.90
2023-01-17T00:15:19.848Z,99.90
2023-01-17T00:17:50.088Z,99.90
2023-01-17T00:20:38.722Z,99.90
2023-01-17T00:23:26.178Z,99.90
2023-01-17T00:26:04.460Z,99.90
2023-01-17T00:28:35.360Z,99.90
2023-01-17T00:31:03.898Z,99.90
2023-01-17T00:33:33.084Z,99.90
2023-01-17T00:36:01.729Z,99.90
2023-01-17T00:38:31.910Z,99.90
2023-01-17T00:41:03.982Z,99.90
2023-01-17T00:43:50.628Z,99.90
2023-01-17T00:46:37.200Z,99.90
2023-01-17T00:49:25.415Z,99.90
2023-01-17T00:52:11.359Z,99.90
2023-01-17T00:54:57.221Z,99.90
2023-01-17T00:57:42.793Z,99.90
2023-01-17T01:00:31.585Z,99.90
2023-01-17T01:03:17.530Z,99.90
2023-01-17T01:06:04.716Z,99.90
2023-01-17T01:08:50.218Z,99.90
2023-01-17T01:11:39.160Z,99.90
2023-01-17T01:14:28.429Z,99.90
2023-01-17T01:17:14.011Z,99.90
2023-01-17T01:19:59.594Z,99.90
2023-01-17T01:22:46.801Z,99.90
2023-01-17T01:25:32.626Z,99.90
2023-01-17T01:28:25.782Z,99.90
2023-01-17T01:31:11.324Z,99.90
2023-01-17T01:33:39.808Z,99.90
2023-01-17T01:36:09.888Z,99.90
2023-01-17T01:38:40.645Z,99.90
2023-01-17T01:41:09.211Z,99.90
2023-01-17T01:43:46.655Z,99.90
2023-01-17T01:46:21.013Z,99.90
2023-01-17T01:48:56.353Z,99.90
2023-01-17T01:51:31.070Z,99.90
2023-01-17T01:54:08.187Z,99.90
2023-01-17T01:56:38.511Z,99.90
2023-01-17T01:59:12.347Z,99.90
2023-01-17T02:01:40.815Z,99.90
2023-01-17T02:04:10.862Z,99.90
2023-01-17T02:06:46.949Z,99.90
2023-01-17T02:09:19.375Z,99.90
2023-01-17T02:11:50.626Z,99.90
2023-01-17T02:14:21.290Z,99.90
2023-01-17T02:17:11.305Z,99.90
2023-01-17T02:20:32.885Z,99.90
2023-01-17T02:23:54.432Z,99.90
2023-01-17T02:26:56.711Z,99.90
2023-01-17T02:30:12.299Z,99.90
2023-01-17T02:32:54.724Z,99.90
2023-01-17T02:35:35.152Z,99.90
2023-01-17T02:38:18.784Z,99.90
2023-01-17T02:40:54.441Z,99.90
2023-01-17T02:43:24.952Z,99.90
2023-01-17T02:45:54.520Z,99.90
2023-01-17T02:48:29.660Z,99.90
2023-01-17T02:51:49.328Z,99.90
2023-01-17T02:54:57.088Z,99.90
2023-01-17T02:57:53.483Z,99.90
2023-01-17T03:00:29.315Z,99.90
2023-01-17T03:03:15.092Z,99.90
2023-01-17T03:05:49.624Z,99.90
2023-01-17T03:08:19.339Z,99.90
2023-01-17T03:10:48.034Z,99.90
2023-01-17T03:13:16.571Z,99.90
2023-01-17T03:15:45.181Z,99.90
2023-01-17T03:18:17.305Z,99.90
2023-01-17T03:20:45.480Z,99.90
2023-01-17T03:23:13.828Z,99.90
2023-01-17T03:25:42.046Z,99.90
2023-01-17T03:28:10.204Z,99.90
2023-01-17T03:30:38.450Z,99.90
2023-01-17T03:33:06.634Z,99.90
2023-01-17T03:35:36.226Z,99.90
2023-01-17T03:38:04.709Z,99.90
2023-01-17T03:40:33.140Z,99.90
2023-01-17T03:43:01.319Z,99.90
2023-01-17T03:45:29.565Z,99.90
2023-01-17T03:47:57.858Z,99.90
2023-01-17T03:50:26.894Z,99.90
2023-01-17T03:52:56.525Z,99.90
2023-01-17T03:55:24.755Z,99.90
2023-01-17T03:57:52.933Z,99.90
2023-01-17T04:00:21.916Z,99.90
2023-01-17T04:02:50.171Z,99.90
2023-01-17T04:05:18.541Z,99.90
2023-01-17T04:07:46.714Z,99.90
2023-01-17T04:10:17.210Z,99.90
2023-01-17T04:12:45.571Z,99.90
2023-01-17T04:15:13.808Z,99.90
2023-01-17T04:17:42.877Z,99.90
2023-01-17T04:20:19.577Z,99.90
2023-01-17T04:22:47.737Z,99.90
2023-01-17T04:25:17.380Z,99.90
2023-01-17T04:27:45.876Z,99.90
2023-01-17T04:30:14.534Z,99.90
2023-01-17T04:32:42.675Z,99.90
2023-01-17T04:35:11.384Z,99.90
2023-01-17T04:37:39.744Z,99.90
2023-01-17T04:40:09.895Z,99.90
2023-01-17T04:42:39.684Z,99.90
2023-01-17T04:45:09.645Z,99.90
2023-01-17T04:47:37.833Z,99.90
2023-01-17T04:50:07.268Z,99.90
2023-01-17T04:52:35.415Z,99.90
2023-01-17T04:55:03.699Z,99.90
2023-01-17T04:57:31.956Z,99.90
2023-01-17T05:00:01.483Z,99.90
2023-01-17T05:02:29.725Z,99.90
2023-01-17T05:04:57.845Z,99.90
2023-01-17T05:07:26.070Z,99.90
2023-01-17T05:09:54.223Z,99.90
2023-01-17T05:12:22.601Z,99.90
2023-01-17T05:14:51.555Z,99.90
2023-01-17T05:17:21.763Z,99.90
2023-01-17T05:19:50.162Z,99.90
2023-01-17T05:22:18.594Z,99.90
2023-01-17T05:24:49.167Z,99.90
2023-01-17T05:27:17.669Z,99.90
2023-01-17T05:29:46.023Z,99.90
2023-01-17T05:32:14.153Z,99.90
2023-01-17T05:34:43.644Z,99.90
2023-01-17T05:37:11.837Z,99.90
2023-01-17T05:39:39.998Z,99.90
2023-01-17T05:42:08.222Z,99.90
2023-01-17T05:44:36.416Z,99.90
2023-01-17T05:47:04.589Z,99.90
2023-01-17T05:49:32.756Z,99.90
2023-01-17T05:52:02.349Z,99.90
2023-01-17T05:54:30.757Z,99.90
2023-01-17T05:56:58.899Z,99.90
2023-01-17T05:59:36.671Z,99.90
2023-01-17T06:02:05.807Z,99.90
2023-01-17T06:04:34.051Z,99.90
2023-01-17T06:07:03.599Z,99.90
2023-01-17T06:09:31.765Z,99.90
2023-01-17T06:11:59.944Z,99.90
2023-01-17T06:14:28.070Z,99.90
2023-01-17T06:16:56.291Z,99.90
2023-01-17T06:19:24.536Z,99.90
2023-01-17T06:21:52.699Z,99.90
2023-01-17T06:24:22.220Z,99.90
2023-01-17T06:26:50.618Z,99.90
2023-01-17T06:29:18.765Z,99.90
2023-01-17T06:31:47.015Z,99.90
2023-01-17T06:34:15.115Z,99.90
2023-01-17T06:36:43.299Z,99.90
2023-01-17T06:39:14.111Z,99.90
2023-01-17T06:41:44.580Z,99.90
2023-01-17T06:44:13.238Z,99.90
2023-01-17T06:46:41.753Z,99.90
2023-01-17T06:49:10.055Z,99.90
2023-01-17T06:51:38.157Z,99.90
2023-01-17T06:54:06.504Z,99.90
2023-01-17T06:56:35.049Z,99.90
2023-01-17T06:59:05.757Z,99.90
2023-01-17T07:01:34.012Z,99.90
2023-01-17T07:04:02.496Z,99.90
2023-01-17T07:06:30.695Z,99.90
2023-01-17T07:08:59.273Z,99.90
2023-01-17T07:11:27.673Z,99.90
2023-01-17T07:13:55.794Z,99.90
2023-01-17T07:16:25.381Z,99.90
2023-01-17T07:18:54.720Z,99.90
2023-01-17T07:21:22.914Z,99.90
2023-01-17T07:23:51.040Z,99.90
2023-01-17T07:26:20.086Z,99.90
2023-01-17T07:28:48.313Z,99.90
2023-01-17T07:31:16.861Z,99.90
2023-01-17T07:33:46.398Z,99.90
2023-01-17T07:36:14.573Z,99.90
2023-01-17T07:38:43.890Z,99.90
2023-01-17T07:41:12.098Z,11.00
2023-01-17T07:43:40.188Z,25.90
2023-01-17T07:46:08.585Z,16.80
2023-01-17T07:48:37.098Z,6.60
2023-01-17T07:51:07.039Z,13.00
2023-01-17T07:53:36.053Z,12.60
2023-01-17T07:56:07.328Z,1.00
2023-01-17T07:58:36.850Z,1.00
2023-01-17T08:01:07.727Z,1.00
2023-01-17T08:03:40.175Z,1.00
2023-01-17T08:06:20.288Z,1.00
2023-01-17T08:08:49.450Z,1.00
2023-01-17T08:11:17.836Z,1.00
2023-01-17T08:13:46.192Z,1.00
2023-01-17T08:16:15.550Z,1.00
2023-01-17T08:18:43.780Z,1.00
2023-01-17T08:21:17.281Z,1.00
2023-01-17T08:23:48.916Z,1.00
2023-01-17T08:26:21.301Z,1.00
2023-01-17T08:28:55.020Z,1.00
2023-01-17T08:31:23.485Z,1.00
2023-01-17T08:33:51.675Z,1.00
2023-01-17T08:36:21.255Z,1.00
2023-01-17T08:38:52.658Z,1.00
2023-01-17T08:41:21.307Z,99.90
2023-01-17T08:43:50.924Z,99.90
2023-01-17T08:46:21.128Z,99.90
2023-01-17T08:48:51.388Z,99.90
2023-01-17T08:51:20.974Z,95.80
2023-01-17T08:53:49.432Z,1.00
2023-01-17T08:56:17.556Z,1.00
2023-01-17T08:58:47.520Z,1.00
2023-01-17T09:01:15.778Z,1.00
2023-01-17T09:03:45.590Z,1.00
2023-01-17T09:06:16.395Z,1.00
2023-01-17T09:08:46.978Z,1.00
2023-01-17T09:11:18.124Z,99.90
2023-01-17T09:13:46.363Z,99.90
2023-01-17T09:16:14.553Z,99.90
2023-01-17T09:18:42.769Z,1.00
2023-01-17T09:21:13.683Z,1.00
2023-01-17T09:23:42.762Z,99.90
2023-01-17T09:26:21.500Z,99.90
2023-01-17T09:28:49.812Z,1.00
2023-01-17T09:31:20.557Z,1.00
2023-01-17T09:33:48.775Z,1.00
2023-01-17T09:36:17.117Z,1.00
2023-01-17T09:38:45.491Z,99.90
2023-01-17T09:41:29.568Z,1.00
2023-01-17T09:44:05.838Z,1.00
2023-01-17T09:46:39.985Z,1.00
2023-01-17T09:49:15.695Z,1.00
2023-01-17T09:51:44.832Z,1.00
2023-01-17T09:54:23.008Z,99.90
2023-01-17T09:57:04.407Z,9.00
2023-01-17T09:59:46.946Z,99.90
2023-01-17T10:02:45.152Z,1.00
2023-01-17T10:05:34.334Z,1.00
2023-01-17T10:08:23.042Z,59.00
2023-01-17T10:11:14.078Z,1.00
2023-01-17T10:14:01.490Z,1.00
2023-01-17T10:16:45.388Z,27.50
2023-01-17T10:19:45.740Z,1.00
2023-01-17T10:22:36.844Z,99.90
2023-01-17T10:25:33.202Z,1.00
2023-01-17T10:28:06.768Z,1.00
2023-01-17T10:30:43.359Z,99.90
2023-01-17T10:33:19.817Z,1.00
2023-01-17T10:35:57.751Z,1.00
2023-01-17T10:38:33.446Z,1.00
2023-01-17T10:41:09.807Z,1.00
2023-01-17T10:43:51.199Z,1.00
2023-01-17T10:46:28.696Z,1.00
2023-01-17T10:48:58.439Z,1.00
2023-01-17T10:52:02.312Z,1.00
2023-01-17T10:55:03.920Z,20.60
2023-01-17T10:57:39.317Z,1.00
2023-01-17T11:00:39.813Z,1.00
2023-01-17T11:03:12.723Z,1.00
2023-01-17T11:05:42.751Z,1.00
2023-01-17T11:08:14.298Z,99.90
2023-01-17T11:10:47.020Z,99.90
2023-01-17T11:13:27.537Z,17.30
2023-01-17T11:16:00.718Z,16.30
2023-01-17T11:18:34.146Z,88.80
2023-01-17T11:21:13.970Z,1.00
2023-01-17T11:23:45.518Z,1.00
2023-01-17T11:26:27.251Z,1.00
2023-01-17T11:29:16.214Z,1.00
2023-01-17T11:31:44.998Z,1.00
2023-01-17T11:34:19.887Z,99.90
2023-01-17T11:36:49.251Z,99.90
2023-01-17T11:39:29.606Z,99.90
2023-01-17T11:41:57.993Z,99.90
2023-01-17T11:44:29.416Z,99.90
2023-01-17T11:47:19.978Z,1.00
2023-01-17T11:49:50.950Z,99.90
2023-01-17T11:52:25.447Z,1.00
2023-01-17T11:54:56.523Z,1.00
2023-01-17T11:57:28.762Z,1.00
2023-01-17T12:00:12.680Z,1.00
2023-01-17T12:03:18.050Z,1.00
2023-01-17T12:06:03.591Z,1.00
2023-01-17T12:08:51.429Z,1.00
2023-01-17T12:11:37.163Z,1.00
2023-01-17T12:14:24.211Z,1.00
2023-01-17T12:17:13.927Z,1.00
2023-01-17T12:20:01.366Z,1.00
2023-01-17T12:22:57.887Z,1.00
2023-01-17T12:25:45.783Z,1.00
2023-01-17T12:28:46.430Z,1.00
2023-01-17T12:31:27.759Z,1.00
2023-01-17T12:34:07.040Z,1.00
2023-01-17T12:36:49.675Z,1.00
2023-01-17T12:39:26.780Z,1.00
2023-01-17T12:42:04.665Z,99.90
2023-01-17T12:44:55.712Z,99.90
2023-01-17T12:47:23.896Z,99.90
2023-01-17T12:50:05.404Z,99.90
2023-01-17T12:52:54.975Z,99.90
2023-01-17T12:55:38.972Z,99.90
2023-01-17T12:58:17.355Z,99.90
2023-01-17T13:00:51.096Z,99.90
2023-01-17T13:03:31.190Z,99.90
2023-01-17T13:06:03.772Z,99.90
2023-01-17T13:08:41.676Z,99.90
2023-01-17T13:11:27.760Z,99.90
2023-01-17T13:13:57.524Z,99.90
2023-01-17T13:16:35.852Z,99.90
2023-01-17T13:19:17.175Z,99.90
2023-01-17T13:21:48.955Z,99.90
2023-01-17T13:24:29.390Z,99.90
2023-01-17T13:27:32.798Z,99.90
2023-01-17T13:30:30.249Z,99.90
2023-01-17T13:33:35.119Z,99.90
2023-01-17T13:36:46.545Z,99.90
2023-01-17T13:40:01.453Z,99.90
2023-01-17T13:42:45.749Z,99.90
2023-01-17T13:45:22.430Z,99.90
2023-01-17T13:47:50.617Z,99.90
2023-01-17T13:50:50.131Z,99.90
2023-01-17T13:53:58.921Z,99.90
2023-01-17T13:56:36.123Z,56.00
2023-01-17T13:59:30.611Z,72.00
2023-01-17T14:01:58.997Z,55.40
2023-01-17T14:05:10.580Z,85.20
2023-01-17T14:07:48.211Z,58.10
2023-01-17T14:10:34.401Z,72.20
2023-01-17T14:13:03.086Z,42.50
2023-01-17T14:15:47.971Z,1.00
2023-01-17T14:18:34.664Z,1.00
2023-01-17T14:21:12.341Z,1.00
2023-01-17T14:24:07.067Z,1.00
2023-01-17T14:26:56.308Z,1.00
2023-01-17T14:29:56.958Z,1.00
2023-01-17T14:32:32.089Z,1.00
2023-01-17T14:35:00.815Z,20.20
2023-01-17T14:37:46.966Z,6.50
2023-01-17T14:40:25.944Z,10.50
2023-01-17T14:43:01.648Z,16.50
2023-01-17T14:45:33.836Z,24.40
2023-01-17T14:48:07.058Z,34.00
2023-01-17T14:50:39.717Z,44.90
2023-01-17T14:53:25.956Z,50.50
2023-01-17T14:56:01.715Z,59.70
2023-01-17T14:58:33.010Z,54.80
2023-01-17T15:01:04.350Z,30.50
2023-01-17T15:03:44.635Z,22.30
2023-01-17T15:06:19.284Z,21.60
2023-01-17T15:08:49.493Z,11.80
2023-01-17T15:11:23.913Z,1.00
2023-01-17T15:13:57.357Z,1.00
2023-01-17T15:16:28.342Z,1.40
2023-01-17T15:18:59.563Z,13.20
2023-01-17T15:21:31.995Z,4.10
2023-01-17T15:24:03.779Z,1.00
2023-01-17T15:26:37.426Z,3.80
2023-01-17T15:29:08.766Z,1.00
2023-01-17T15:31:44.080Z,1.00
2023-01-17T15:34:27.375Z,12.10
2023-01-17T15:36:58.638Z,27.30
2023-01-17T15:39:30.837Z,50.40
2023-01-17T15:42:03.814Z,76.90
2023-01-17T15:44:47.523Z,93.30
2023-01-17T15:47:32.521Z,99.90
2023-01-17T15:50:25.622Z,99.90
2023-01-17T15:52:56.689Z,99.90
2023-01-17T15:55:30.545Z,99.90
2023-01-17T15:57:59.026Z,99.90
2023-01-17T16:00:37.573Z,96.90
2023-01-17T16:03:23.731Z,97.60
2023-01-17T16:05:57.811Z,99.90
2023-01-17T16:08:33.852Z,99.90
2023-01-17T16:11:06.174Z,99.90
2023-01-17T16:13:37.788Z,99.90
2023-01-17T16:16:23.033Z,99.90
2023-01-17T16:19:03.557Z,99.90
2023-01-17T16:21:33.371Z,99.90
2023-01-17T16:24:03.705Z,99.90
2023-01-17T16:26:32.024Z,99.90
2023-01-17T16:29:00.188Z,99.90
2023-01-17T16:31:28.317Z,99.90
2023-01-17T16:33:56.451Z,99.90
2023-01-17T16:36:24.611Z,99.90
2023-01-17T16:38:54.195Z,99.90
2023-01-17T16:41:22.715Z,99.90
2023-01-17T16:44:02.950Z,99.90
2023-01-17T16:46:31.846Z,99.90
2023-01-17T16:49:02.023Z,99.90
2023-01-17T16:51:30.187Z,99.90
2023-01-17T16:54:00.424Z,99.90
2023-01-17T16:56:28.758Z,39.30
2023-01-17T16:58:56.921Z,1.00
2023-01-17T17:01:25.288Z,1.00
2023-01-17T17:03:53.675Z,23.20
2023-01-17T17:06:21.968Z,58.30
2023-01-17T17:08:50.855Z,92.40
2023-01-17T17:11:23.879Z,99.90
2023-01-17T17:13:53.018Z,99.90
2023-01-17T17:16:26.549Z,99.90
2023-01-17T17:18:59.808Z,99.90
2023-01-17T17:21:29.613Z,99.90
2023-01-17T17:24:00.559Z,99.90
2023-01-17T17:26:34.410Z,99.90
2023-01-17T17:29:03.939Z,99.90
2023-01-17T17:31:32.309Z,99.90
2023-01-17T17:34:01.824Z,99.90
2023-01-17T17:36:30.692Z,99.90
2023-01-17T17:38:59.708Z,99.90
2023-01-17T17:41:32.893Z,99.90
2023-01-17T17:44:03.594Z,99.90
2023-01-17T17:46:33.773Z,99.90
2023-01-17T17:49:02.824Z,99.90
2023-01-17T17:51:33.952Z,99.90
2023-01-17T17:54:05.997Z,99.90
2023-01-17T17:56:36.786Z,99.90
2023-01-17T17:59:07.445Z,99.90
2023-01-17T18:01:38.365Z,99.90
2023-01-17T18:04:07.885Z,99.90
2023-01-17T18:06:45.775Z,99.90
2023-01-17T18:09:15.075Z,99.90
2023-01-17T18:11:45.739Z,99.90
2023-01-17T18:14:34.952Z,99.90
2023-01-17T18:17:03.216Z,99.90
2023-01-17T18:19:31.472Z,99.90
2023-01-17T18:21:59.618Z,99.90
2023-01-17T18:24:28.798Z,99.90
2023-01-17T18:26:59.100Z,99.60
2023-01-17T18:29:28.585Z,93.70
2023-01-17T18:33:09.712Z,83.70
2023-01-17T18:35:37.957Z,1.00
2023-01-17T18:38:06.392Z,1.00
2023-01-17T18:40:35.811Z,8.40
2023-01-17T18:43:05.364Z,13.10
2023-01-17T18:45:33.564Z,37.40
2023-01-17T18:48:02.499Z,58.70
2023-01-17T18:50:30.650Z,91.60
2023-01-17T18:52:59.067Z,99.90
2023-01-17T18:55:27.261Z,90.90
2023-01-17T18:57:55.793Z,44.60
2023-01-17T19:00:25.968Z,26.80
2023-01-17T19:02:54.133Z,27.20
2023-01-17T19:05:24.503Z,61.70
2023-01-17T19:07:53.071Z,99.90
2023-01-17T19:10:21.581Z,99.90
2023-01-17T19:12:49.800Z,99.90
2023-01-17T19:15:17.976Z,99.90
2023-01-17T19:17:47.509Z,99.90
2023-01-17T19:20:16.274Z,99.90
2023-01-17T19:22:44.521Z,99.90
2023-01-17T19:25:12.697Z,99.90
2023-01-17T19:27:41.812Z,99.90
2023-01-17T19:30:11.964Z,99.90
2023-01-17T19:32:40.229Z,99.90
2023-01-17T19:35:11.162Z,99.90
2023-01-17T19:37:39.299Z,99.90
2023-01-17T19:40:09.469Z,99.90
2023-01-17T19:42:37.743Z,99.90
2023-01-17T19:45:07.156Z,99.90
2023-01-17T19:47:35.420Z,99.90
2023-01-17T19:50:04.614Z,99.90
2023-01-17T19:52:34.202Z,99.90
2023-01-17T19:55:02.449Z,99.90
2023-01-17T19:57:34.719Z,99.90
2023-01-17T20:00:04.750Z,99.90
2023-01-17T20:02:35.941Z,99.90
2023-01-17T20:05:04.187Z,99.90
2023-01-17T20:07:33.977Z,99.90
2023-01-17T20:10:02.132Z,99.90
2023-01-17T20:12:31.714Z,99.90
2023-01-17T20:14:59.883Z,99.90
2023-01-17T20:17:28.082Z,99.90
2023-01-17T20:19:56.362Z,99.90
2023-01-17T20:22:24.530Z,99.90
2023-01-17T20:24:54.120Z,99.90
2023-01-17T20:27:26.460Z,99.90
2023-01-17T20:29:54.648Z,99.90
2023-01-17T20:32:22.925Z,99.90
2023-01-17T20:34:51.381Z,99.90
2023-01-17T20:37:19.602Z,99.90
2023-01-17T20:39:47.986Z,99.90
2023-01-17T20:42:18.498Z,99.90
2023-01-17T20:44:46.861Z,99.90
2023-01-17T20:47:14.997Z,99.90
2023-01-17T20:49:43.545Z,99.90
2023-01-17T20:52:15.163Z,99.90
2023-01-17T20:54:44.214Z,99.90
2023-01-17T20:57:12.365Z,99.90
2023-01-17T20:59:42.087Z,99.90
2023-01-17T21:02:11.117Z,99.90
2023-01-17T21:04:39.510Z,99.90
2023-01-17T21:07:07.647Z,99.90
2023-01-17T21:09:35.821Z,99.90
2023-01-17T21:12:04.227Z,99.90
2023-01-17T21:14:32.335Z,99.90
2023-01-17T21:17:01.889Z,99.90
2023-01-17T21:19:30.290Z,99.90
2023-01-17T21:21:59.020Z,99.90
2023-01-17T21:24:29.245Z,99.90
2023-01-17T21:26:57.403Z,99.90
2023-01-17T21:29:29.025Z,99.90
2023-01-17T21:31:57.578Z,99.90
2023-01-17T21:34:27.592Z,99.90
2023-01-17T21:36:55.811Z,99.90
2023-01-17T21:39:24.346Z,99.90
2023-01-17T21:41:52.513Z,99.90
2023-01-17T21:44:22.912Z,99.90
2023-01-17T21:46:55.931Z,99.90
2023-01-17T21:49:25.991Z,99.90
2023-01-17T21:52:11.772Z,99.90
2023-01-17T21:54:57.296Z,99.90
2023-01-17T21:57:43.082Z,99.90
2023-01-17T22:00:15.312Z,99.90
2023-01-17T22:02:44.484Z,99.90
2023-01-17T22:05:16.374Z,99.90
2023-01-17T22:08:05.405Z,99.90
2023-01-17T22:10:44.436Z,99.90
2023-01-17T22:13:14.686Z,99.90
2023-01-17T22:15:43.628Z,99.90
2023-01-17T22:18:14.490Z,99.90
2023-01-17T22:20:44.384Z,99.90
2023-01-17T22:23:12.593Z,99.90
2023-01-17T22:25:40.862Z,99.90
2023-01-17T22:28:09.276Z,99.90
2023-01-17T22:30:37.426Z,92.90
2023-01-17T22:33:05.834Z,96.60
2023-01-17T22:35:34.028Z,99.90
2023-01-17T22:38:03.641Z,99.90
2023-01-17T22:40:36.112Z,99.90
2023-01-17T22:43:04.526Z,99.90
2023-01-17T22:45:32.705Z,99.90
2023-01-17T22:48:00.871Z,99.90
2023-01-17T22:50:29.060Z,70.30
2023-01-17T22:52:57.669Z,58.90
2023-01-17T22:55:27.425Z,61.60
2023-01-17T22:57:55.611Z,78.60
2023-01-17T23:00:23.899Z,91.10
2023-01-17T23:02:52.200Z,98.50
2023-01-17T23:05:20.478Z,75.70
2023-01-17T23:07:51.237Z,59.00
2023-01-17T23:10:33.469Z,63.30
2023-01-17T23:13:03.045Z,81.50
2023-01-17T23:15:48.717Z,74.20
2023-01-17T23:18:45.707Z,58.30
2023-01-17T23:21:13.972Z,55.30
2023-01-17T23:23:42.259Z,80.80
2023-01-17T23:26:10.517Z,95.10
2023-01-17T23:28:39.073Z,99.90
2023-01-17T23:31:08.609Z,99.90
2023-01-17T23:33:36.785Z,99.90
2023-01-17T23:36:09.133Z,99.90
2023-01-17T23:38:40.542Z,99.90
2023-01-17T23:41:27.206Z,99.90
2023-01-17T23:43:59.328Z,99.90
2023-01-17T23:46:29.968Z,99.90
2023-01-17T23:48:58.271Z,99.90
2023-01-17T23:51:26.630Z,99.90
2023-01-17T23:54:05.101Z,99.90
2023-01-17T23:56:33.272Z,99.90
2023-01-17T23:59:04.482Z,99.90
